Time;durP1;ratioP1;P1;durP2;ratioP2;P2;SDS_P1;SDS_P2;PMS_P1;PMS_P2;Temp;Humidity;BMP_temperature;BMP_pressure;BME280_temperature;BME280_humidity;BME280_pressure;Samples;Min_cycle;Max_cycle;Signal;HPM_P1;HPM_P2
2023/12/21 00:01:54;;;;;;;19.33;5.38;;;9.10;99.90;;;;;;4986774;28;20034;-81
2023/12/21 00:04:20;;;;;;;18.05;5.03;;;9.10;99.90;;;;;;4996832;28;20041;-81
2023/12/21 00:06:47;;;;;;;23.30;5.47;;;9.10;99.90;;;;;;4984471;28;20034;-81
2023/12/21 00:09:15;;;;;;;20.45;4.53;;;9.10;99.90;;;;;;5004401;28;20065;-81
2023/12/21 00:11:41;;;;;;;21.58;5.28;;;9.10;99.90;;;;;;5013855;28;20069;-78
2023/12/21 00:14:07;;;;;;;24.40;5.65;;;9.20;99.90;;;;;;4989652;28;20492;-78
2023/12/21 00:16:33;;;;;;;23.80;5.53;;;9.10;99.90;;;;;;4975120;28;20034;-77
2023/12/21 00:18:59;;;;;;;21.00;6.50;;;9.20;99.90;;;;;;4995990;28;20065;-78
2023/12/21 00:21:25;;;;;;;27.58;5.85;;;9.20;99.90;;;;;;4987280;28;20038;-79
2023/12/21 00:23:51;;;;;;;16.98;4.45;;;9.30;99.90;;;;;;4966798;28;20049;-78
2023/12/21 00:26:17;;;;;;;20.13;5.10;;;9.20;99.90;;;;;;5009476;28;20042;-79
2023/12/21 00:28:43;;;;;;;20.25;5.15;;;9.20;99.90;;;;;;5014738;28;20106;-78
2023/12/21 00:31:10;;;;;;;21.13;4.85;;;9.20;99.90;;;;;;4976989;28;20037;-78
2023/12/21 00:33:36;;;;;;;21.52;5.57;;;9.20;99.90;;;;;;4980703;28;20116;-78
2023/12/21 00:36:02;;;;;;;21.50;5.47;;;9.20;99.90;;;;;;4991263;28;20444;-78
2023/12/21 00:38:31;;;;;;;22.92;4.65;;;9.20;99.90;;;;;;4972555;28;20046;-78
2023/12/21 00:40:59;;;;;;;27.02;5.13;;;9.20;99.90;;;;;;4995892;28;20037;-79
2023/12/21 00:43:25;;;;;;;31.30;5.35;;;8.80;99.90;;;;;;4976288;28;20121;-78
2023/12/21 00:45:51;;;;;;;21.25;4.65;;;9.30;99.90;;;;;;4990436;28;20034;-79
2023/12/21 00:48:17;;;;;;;14.90;4.03;;;9.30;99.90;;;;;;4973199;28;20038;-78
2023/12/21 00:50:46;;;;;;;21.52;5.03;;;9.30;99.90;;;;;;4967887;28;20049;-78
2023/12/21 00:53:12;;;;;;;19.42;4.43;;;9.30;99.90;;;;;;4986695;28;20034;-78
2023/12/21 00:55:38;;;;;;;18.27;4.50;;;10.10;99.90;;;;;;4980536;28;20041;-78
2023/12/21 00:58:07;;;;;;;18.20;4.28;;;9.30;99.90;;;;;;4981190;28;20428;-79
2023/12/21 01:00:33;;;;;;;18.08;4.30;;;9.30;99.90;;;;;;4981387;28;20120;-79
2023/12/21 01:03:08;;;;;;;20.17;4.53;;;9.40;99.90;;;;;;4980792;28;20088;-78
2023/12/21 01:05:34;;;;;;;18.02;4.45;;;9.40;99.90;;;;;;4989449;28;21826;-79
2023/12/21 01:08:00;;;;;;;17.40;4.18;;;9.40;99.90;;;;;;4983907;28;20042;-78
2023/12/21 01:10:25;;;;;;;17.65;4.30;;;9.40;99.90;;;;;;4989409;28;20038;-79
2023/12/21 01:12:51;;;;;;;12.40;3.83;;;9.40;99.90;;;;;;4979569;28;20100;-78
2023/12/21 01:15:17;;;;;;;18.85;4.93;;;9.40;99.90;;;;;;4967886;28;20050;-78
2023/12/21 01:17:43;;;;;;;20.40;4.55;;;9.40;99.90;;;;;;4984597;28;20489;-79
2023/12/21 01:20:13;;;;;;;15.88;4.10;;;9.40;99.90;;;;;;4979570;28;20508;-79
2023/12/21 01:22:44;;;;;;;21.83;4.80;;;9.40;99.90;;;;;;4976838;28;20041;-79
2023/12/21 01:25:10;;;;;;;24.90;3.97;;;9.40;99.90;;;;;;4973240;28;20118;-80
2023/12/21 01:27:35;;;;;;;22.30;4.60;;;9.30;99.90;;;;;;4984098;28;20141;-79
2023/12/21 01:30:02;;;;;;;16.10;4.68;;;9.40;99.90;;;;;;4978015;28;20068;-79
2023/12/21 01:32:27;;;;;;;16.13;3.65;;;9.40;99.90;;;;;;4985526;28;20485;-79
2023/12/21 01:34:53;;;;;;;18.08;4.25;;;9.40;99.90;;;;;;4984568;28;20037;-78
2023/12/21 01:37:19;;;;;;;19.45;3.85;;;9.40;99.90;;;;;;4974181;28;20037;-79
2023/12/21 01:39:45;;;;;;;19.92;4.03;;;9.40;99.90;;;;;;4977847;28;20493;-79
2023/12/21 01:42:11;;;;;;;19.17;4.07;;;9.70;99.90;;;;;;4974546;28;20089;-79
2023/12/21 01:44:36;;;;;;;18.92;3.90;;;9.40;99.90;;;;;;4989767;28;20112;-80
2023/12/21 01:47:02;;;;;;;15.23;3.90;;;9.40;99.90;;;;;;5000277;28;20201;-78
2023/12/21 01:49:28;;;;;;;13.88;3.55;;;9.40;99.90;;;;;;4995894;28;20034;-79
2023/12/21 01:51:55;;;;;;;22.25;3.42;;;9.40;99.90;;;;;;5004166;28;20040;-79
2023/12/21 01:54:20;;;;;;;17.75;3.53;;;9.40;99.90;;;;;;4981871;28;20042;-78
2023/12/21 01:56:46;;;;;;;16.00;3.45;;;9.40;99.90;;;;;;4981712;28;20437;-79
2023/12/21 01:59:11;;;;;;;19.85;3.50;;;9.40;99.90;;;;;;4977719;28;20052;-78
2023/12/21 02:01:39;;;;;;;17.52;3.80;;;9.40;99.90;;;;;;4983181;28;20463;-79
2023/12/21 02:04:05;;;;;;;19.80;3.25;;;9.40;99.90;;;;;;4999835;28;20516;-78
2023/12/21 02:06:30;;;;;;;17.08;3.70;;;9.30;99.90;;;;;;4983935;28;20045;-78
2023/12/21 02:08:56;;;;;;;19.13;3.50;;;9.30;99.90;;;;;;4993216;28;20036;-78
2023/12/21 02:11:21;;;;;;;17.20;3.75;;;9.30;99.90;;;;;;4991588;28;20427;-78
2023/12/21 02:13:47;;;;;;;19.10;3.33;;;9.30;99.90;;;;;;5008909;28;20493;-79
2023/12/21 02:16:19;;;;;;;18.42;3.85;;;9.30;99.90;;;;;;5003302;28;20412;-78
2023/12/21 02:18:45;;;;;;;17.02;3.17;;;9.30;99.90;;;;;;5000341;28;20051;-79
2023/12/21 02:21:12;;;;;;;14.95;3.40;;;9.30;99.90;;;;;;4984409;28;20045;-79
2023/12/21 02:23:40;;;;;;;21.42;3.53;;;9.30;99.90;;;;;;5001117;28;20419;-79
2023/12/21 02:26:06;;;;;;;13.75;3.00;;;9.20;99.90;;;;;;4999692;28;20119;-78
2023/12/21 02:28:31;;;;;;;17.80;3.10;;;9.20;99.90;;;;;;4999989;28;20134;-78
2023/12/21 02:30:57;;;;;;;17.85;4.10;;;9.20;99.90;;;;;;5011405;28;20068;-78
2023/12/21 02:33:23;;;;;;;14.80;3.35;;;9.20;99.90;;;;;;5005569;28;20480;-78
2023/12/21 02:35:48;;;;;;;21.73;3.83;;;9.80;99.90;;;;;;4981156;28;20030;-79
2023/12/21 02:38:14;;;;;;;15.63;3.88;;;9.20;99.90;;;;;;4980916;28;20130;-78
2023/12/21 02:40:39;;;;;;;24.77;4.32;;;9.20;99.90;;;;;;4984744;28;20046;-78
2023/12/21 02:43:05;;;;;;;20.98;3.72;;;9.20;99.90;;;;;;4990020;28;20046;-78
2023/12/21 02:45:30;;;;;;;20.45;4.50;;;9.20;99.90;;;;;;4985706;28;20034;-78
2023/12/21 02:47:56;;;;;;;15.88;3.75;;;9.20;99.90;;;;;;5005167;28;20046;-78
2023/12/21 02:50:21;;;;;;;22.35;4.53;;;9.20;99.90;;;;;;5003368;28;20045;-78
2023/12/21 02:52:47;;;;;;;15.52;4.63;;;9.20;99.90;;;;;;4987874;28;20057;-78
2023/12/21 02:55:12;;;;;;;13.60;3.58;;;9.20;99.90;;;;;;4988818;28;20037;-79
2023/12/21 02:57:38;;;;;;;21.58;4.68;;;9.30;99.90;;;;;;5008192;28;20034;-78
2023/12/21 03:00:04;;;;;;;17.60;4.53;;;9.20;99.90;;;;;;5007685;28;20046;-78
2023/12/21 03:02:30;;;;;;;21.30;4.22;;;9.20;99.90;;;;;;4992515;28;20439;-78
2023/12/21 03:04:55;;;;;;;15.10;4.10;;;9.20;99.90;;;;;;5010019;28;20034;-78
2023/12/21 03:07:21;;;;;;;24.75;4.63;;;9.20;99.90;;;;;;5008907;28;20037;-78
2023/12/21 03:09:46;;;;;;;23.65;4.85;;;9.20;99.90;;;;;;5014152;28;20038;-78
2023/12/21 03:12:12;;;;;;;21.05;4.80;;;9.20;99.90;;;;;;5008859;28;20034;-79
2023/12/21 03:14:38;;;;;;;20.92;5.40;;;9.20;99.90;;;;;;5011521;28;20034;-78
2023/12/21 03:17:03;;;;;;;23.73;5.25;;;9.20;99.90;;;;;;5009501;28;20489;-79
2023/12/21 03:19:29;;;;;;;18.13;4.35;;;9.20;99.90;;;;;;5003503;28;20093;-81
2023/12/21 03:21:55;;;;;;;15.63;5.30;;;9.20;99.90;;;;;;4996738;28;20038;-78
2023/12/21 03:24:21;;;;;;;18.75;5.90;;;9.20;99.90;;;;;;4988430;28;20077;-78
2023/12/21 03:26:47;;;;;;;22.77;5.97;;;9.30;99.90;;;;;;4982388;28;20081;-78
2023/12/21 03:29:12;;;;;;;21.98;6.07;;;9.20;99.90;;;;;;4988634;28;20053;-78
2023/12/21 03:31:38;;;;;;;21.30;5.95;;;9.20;99.90;;;;;;5009257;28;20094;-79
2023/12/21 03:34:03;;;;;;;24.58;5.88;;;9.20;99.90;;;;;;4996673;28;20042;-78
2023/12/21 03:36:29;;;;;;;15.75;5.30;;;9.20;99.90;;;;;;4992813;28;20040;-78
2023/12/21 03:38:55;;;;;;;22.90;5.70;;;9.20;99.90;;;;;;4982092;28;20046;-78
2023/12/21 03:41:21;;;;;;;17.33;5.80;;;9.20;99.90;;;;;;4992720;28;20480;-78
2023/12/21 03:43:46;;;;;;;17.65;5.32;;;9.20;99.90;;;;;;4993779;28;20090;-78
2023/12/21 03:46:12;;;;;;;19.10;5.95;;;9.20;99.90;;;;;;5005769;28;20071;-79
2023/12/21 03:48:37;;;;;;;20.45;5.38;;;9.20;99.90;;;;;;5009276;28;20088;-78
2023/12/21 03:51:03;;;;;;;21.15;5.68;;;9.20;99.90;;;;;;4998337;28;20073;-78
2023/12/21 03:53:29;;;;;;;16.80;5.18;;;9.20;99.90;;;;;;4973414;28;20092;-81
2023/12/21 03:55:54;;;;;;;20.92;5.65;;;9.20;99.90;;;;;;5011869;28;20524;-79
2023/12/21 03:58:20;;;;;;;19.70;6.22;;;9.20;99.90;;;;;;5003346;28;20082;-78
2023/12/21 04:00:45;;;;;;;18.65;5.45;;;9.20;99.90;;;;;;4987170;28;20053;-79
2023/12/21 04:03:11;;;;;;;18.52;4.95;;;9.20;99.90;;;;;;4992431;28;20042;-78
2023/12/21 04:05:38;;;;;;;18.05;5.00;;;9.20;99.90;;;;;;4994346;28;20038;-78
2023/12/21 04:08:05;;;;;;;17.55;4.63;;;9.20;99.90;;;;;;4990768;28;20100;-78
2023/12/21 04:10:30;;;;;;;16.10;5.10;;;9.20;99.90;;;;;;4992034;28;20519;-78
2023/12/21 04:12:56;;;;;;;21.70;5.20;;;9.20;99.90;;;;;;4996966;28;20065;-79
2023/12/21 04:15:21;;;;;;;18.33;4.93;;;9.20;99.90;;;;;;4990225;28;20042;-78
2023/12/21 04:17:47;;;;;;;15.93;5.03;;;9.20;99.90;;;;;;5010959;28;20413;-79
2023/12/21 04:20:12;;;;;;;13.57;4.53;;;9.20;99.90;;;;;;5005886;28;20041;-78
2023/12/21 04:22:38;;;;;;;17.30;5.03;;;9.20;99.90;;;;;;4990771;28;20044;-79
2023/12/21 04:25:04;;;;;;;17.35;4.47;;;9.20;99.90;;;;;;4988732;28;20100;-78
2023/12/21 04:27:29;;;;;;;16.50;4.93;;;9.20;99.90;;;;;;5008436;28;20042;-79
2023/12/21 04:29:55;;;;;;;15.85;4.40;;;9.20;99.90;;;;;;5007548;28;20042;-78
2023/12/21 04:32:20;;;;;;;21.23;4.70;;;9.20;99.90;;;;;;5002508;28;20116;-79
2023/12/21 04:34:46;;;;;;;15.65;4.70;;;9.20;99.90;;;;;;5012336;28;20041;-79
2023/12/21 04:37:12;;;;;;;16.50;4.50;;;9.20;99.90;;;;;;4989230;28;20480;-78
2023/12/21 04:39:38;;;;;;;13.70;4.35;;;9.20;99.90;;;;;;5009258;22;20050;-74
2023/12/21 04:42:04;;;;;;;20.27;4.25;;;9.20;99.90;;;;;;5004600;28;20060;-74
2023/12/21 04:44:30;;;;;;;18.23;5.05;;;9.30;99.90;;;;;;5010970;28;20108;-75
2023/12/21 04:46:55;;;;;;;20.02;5.78;;;9.30;99.90;;;;;;5010911;28;20066;-74
2023/12/21 04:49:24;;;;;;;18.98;5.80;;;9.30;99.90;;;;;;5010575;28;20408;-75
2023/12/21 04:51:49;;;;;;;13.80;5.25;;;9.30;99.90;;;;;;5008244;28;20045;-74
2023/12/21 04:54:15;;;;;;;15.82;5.35;;;9.30;99.90;;;;;;5012119;28;20060;-74
2023/12/21 04:56:41;;;;;;;17.95;6.65;;;9.30;99.90;;;;;;5011782;28;20447;-74
2023/12/21 04:59:07;;;;;;;16.30;4.97;;;9.30;99.90;;;;;;5013303;28;20183;-75
2023/12/21 05:01:33;;;;;;;16.65;5.22;;;9.30;99.90;;;;;;5008642;28;20050;-74
2023/12/21 05:04:02;;;;;;;16.75;4.45;;;9.30;99.90;;;;;;5011929;28;20465;-74
2023/12/21 05:06:28;;;;;;;16.00;5.28;;;9.30;99.90;;;;;;5010180;28;20049;-75
2023/12/21 05:08:54;;;;;;;16.52;4.18;;;9.30;99.90;;;;;;5011798;28;20388;-74
2023/12/21 05:11:20;;;;;;;14.52;4.35;;;9.30;99.90;;;;;;5010722;28;20116;-75
2023/12/21 05:13:45;;;;;;;15.52;4.20;;;9.40;99.90;;;;;;5010348;28;20065;-74
2023/12/21 05:16:11;;;;;;;17.13;3.45;;;9.30;99.90;;;;;;5010062;28;20037;-74
2023/12/21 05:18:37;;;;;;;12.40;3.78;;;9.30;99.90;;;;;;5017803;28;20411;-74
2023/12/21 05:21:02;;;;;;;14.30;3.30;;;9.30;99.90;;;;;;5013367;28;20121;-74
2023/12/21 05:23:28;;;;;;;14.27;4.07;;;9.30;99.90;;;;;;5007116;28;20070;-74
2023/12/21 05:25:54;;;;;;;16.23;3.75;;;9.40;99.90;;;;;;5010709;28;20058;-74
2023/12/21 05:28:19;;;;;;;16.73;3.60;;;9.30;99.90;;;;;;5010584;28;20068;-75
2023/12/21 05:30:46;;;;;;;16.92;3.17;;;9.30;99.90;;;;;;5010001;28;20393;-74
2023/12/21 05:33:11;;;;;;;15.77;3.53;;;9.40;99.90;;;;;;4993600;28;20037;-74
2023/12/21 05:35:37;;;;;;;19.80;3.08;;;9.40;99.90;;;;;;5008956;28;20068;-74
2023/12/21 05:38:02;;;;;;;15.63;3.45;;;9.40;99.90;;;;;;5010310;28;20081;-75
2023/12/21 05:40:28;;;;;;;16.20;2.97;;;9.40;99.90;;;;;;5009943;28;20125;-75
2023/12/21 05:42:53;;;;;;;19.73;3.78;;;9.40;99.90;;;;;;5009712;28;20030;-75
2023/12/21 05:45:19;;;;;;;15.20;2.75;;;9.40;99.90;;;;;;5009446;28;20069;-75
2023/12/21 05:47:45;;;;;;;16.25;3.13;;;9.50;99.90;;;;;;5011144;28;20116;-75
2023/12/21 05:50:10;;;;;;;14.77;2.90;;;9.50;99.90;;;;;;5009911;28;20120;-75
2023/12/21 05:52:36;;;;;;;13.77;2.60;;;9.50;99.90;;;;;;5009472;28;20076;-74
2023/12/21 05:55:02;;;;;;;16.10;3.28;;;9.50;99.90;;;;;;5009748;28;20190;-74
2023/12/21 05:57:28;;;;;;;22.95;3.58;;;9.60;99.90;;;;;;5009595;28;20133;-74
2023/12/21 05:59:53;;;;;;;14.10;3.58;;;9.60;99.90;;;;;;5009461;28;20033;-75
2023/12/21 06:02:19;;;;;;;10.80;2.70;;;9.50;99.90;;;;;;5009100;28;20070;-74
2023/12/21 06:04:45;;;;;;;15.05;3.65;;;9.50;99.90;;;;;;5009075;28;20577;-74
2023/12/21 06:07:10;;;;;;;13.30;3.28;;;9.60;99.90;;;;;;5011064;28;20087;-75
2023/12/21 06:09:36;;;;;;;11.63;3.25;;;9.60;99.90;;;;;;5010718;28;20064;-75
2023/12/21 06:12:02;;;;;;;13.57;3.10;;;9.60;99.90;;;;;;5009967;28;20042;-74
2023/12/21 06:14:29;;;;;;;12.32;2.78;;;9.50;99.90;;;;;;5010904;28;20889;-75
2023/12/21 06:16:54;;;;;;;17.83;2.75;;;9.50;99.90;;;;;;5009526;28;20049;-75
2023/12/21 06:19:20;;;;;;;10.75;2.80;;;9.50;99.90;;;;;;5008610;28;20046;-75
2023/12/21 06:21:45;;;;;;;11.75;2.88;;;9.50;99.90;;;;;;5010964;28;20125;-75
2023/12/21 06:24:11;;;;;;;15.73;2.95;;;9.60;99.90;;;;;;5014096;28;20122;-75
2023/12/21 06:26:41;;;;;;;10.75;2.63;;;9.60;99.90;;;;;;5012490;28;20045;-75
2023/12/21 06:29:07;;;;;;;15.20;3.17;;;9.60;99.90;;;;;;5014427;28;20046;-75
2023/12/21 06:31:32;;;;;;;11.45;3.08;;;9.50;99.90;;;;;;5010421;28;20034;-75
2023/12/21 06:33:58;;;;;;;10.18;2.90;;;9.60;99.90;;;;;;5014443;28;20515;-75
2023/12/21 06:36:24;;;;;;;17.65;3.85;;;9.60;99.90;;;;;;5016172;28;20041;-75
2023/12/21 06:38:49;;;;;;;17.90;3.15;;;9.60;99.90;;;;;;5014505;28;20041;-75
2023/12/21 06:41:15;;;;;;;15.50;3.33;;;9.50;99.90;;;;;;5017912;28;20577;-75
2023/12/21 06:43:40;;;;;;;12.35;2.95;;;9.50;99.90;;;;;;5011243;28;20030;-75
2023/12/21 06:46:16;;;;;;;14.20;3.05;;;9.50;99.90;;;;;;5013185;28;20120;-75
2023/12/21 06:48:42;;;;;;;13.02;3.25;;;9.60;99.90;;;;;;5020993;28;20092;-75
2023/12/21 06:51:08;;;;;;;14.50;2.78;;;9.50;99.90;;;;;;5010771;28;20415;-74
2023/12/21 06:53:34;;;;;;;13.10;3.08;;;9.50;99.90;;;;;;5015780;28;20096;-75
2023/12/21 06:56:00;;;;;;;10.57;2.60;;;9.50;99.90;;;;;;5018967;28;20037;-75
2023/12/21 06:58:27;;;;;;;11.73;2.90;;;9.50;99.90;;;;;;5014689;28;20042;-75
2023/12/21 07:00:53;;;;;;;8.52;2.55;;;9.50;99.90;;;;;;5013950;28;20074;-75
2023/12/21 07:03:19;;;;;;;10.88;2.35;;;9.50;99.90;;;;;;5015032;28;20088;-75
2023/12/21 07:05:44;;;;;;;7.95;2.70;;;9.50;99.90;;;;;;5012456;28;20046;-75
2023/12/21 07:08:10;;;;;;;15.38;3.50;;;9.50;99.90;;;;;;4996039;28;20385;-75
2023/12/21 07:10:35;;;;;;;9.88;2.92;;;9.50;99.90;;;;;;5012411;28;20136;-74
2023/12/21 07:13:01;;;;;;;9.60;3.42;;;9.50;99.90;;;;;;5012156;28;20048;-74
2023/12/21 07:15:26;;;;;;;10.25;2.80;;;9.50;99.90;;;;;;5012750;28;20044;-75
2023/12/21 07:17:52;;;;;;;7.90;3.28;;;9.50;99.90;;;;;;5011760;28;20103;-74
2023/12/21 07:20:21;;;;;;;10.48;3.50;;;9.50;99.90;;;;;;5012903;28;20050;-74
2023/12/21 07:22:46;;;;;;;11.00;2.90;;;9.50;99.90;;;;;;5012343;28;20169;-76
2023/12/21 07:25:12;;;;;;;12.00;3.40;;;9.50;99.90;;;;;;5012544;28;20113;-75
2023/12/21 07:27:38;;;;;;;10.57;3.33;;;9.50;99.90;;;;;;5012100;28;20578;-74
2023/12/21 07:30:04;;;;;;;8.35;3.00;;;9.50;99.90;;;;;;5012474;28;20049;-75
2023/12/21 07:32:29;;;;;;;8.05;3.05;;;9.50;99.90;;;;;;5010001;28;20492;-75
2023/12/21 07:34:55;;;;;;;9.00;2.78;;;9.50;99.90;;;;;;5011754;28;20096;-75
2023/12/21 07:37:22;;;;;;;10.02;2.83;;;9.50;99.90;;;;;;5011460;28;20126;-77
2023/12/21 07:39:47;;;;;;;10.90;3.13;;;9.50;99.90;;;;;;5011240;28;20093;-75
2023/12/21 07:42:13;;;;;;;11.02;3.00;;;9.50;99.90;;;;;;5011284;28;20073;-75
2023/12/21 07:44:39;;;;;;;10.02;3.10;;;9.50;99.90;;;;;;5011601;28;20128;-74
2023/12/21 07:47:04;;;;;;;10.23;2.80;;;9.50;99.90;;;;;;5010119;28;20571;-75
2023/12/21 07:49:30;;;;;;;10.25;2.92;;;9.50;99.90;;;;;;5024811;28;20060;-74
2023/12/21 07:51:55;;;;;;;11.52;3.78;;;9.50;99.90;;;;;;5012050;28;20139;-75
2023/12/21 07:54:21;;;;;;;9.13;3.28;;;9.50;99.90;;;;;;5008248;28;20046;-74
2023/12/21 07:56:47;;;;;;;11.60;3.00;;;9.50;99.90;;;;;;5007554;28;20038;-74
2023/12/21 07:59:13;;;;;;;10.70;3.20;;;9.50;99.90;;;;;;5010388;28;20034;-74
2023/12/21 08:01:39;;;;;;;13.40;3.20;;;9.50;99.90;;;;;;5003940;28;20053;-73
2023/12/21 08:04:07;;;;;;;11.35;2.85;;;9.50;99.90;;;;;;5011841;28;20038;-74
2023/12/21 08:06:32;;;;;;;8.55;2.95;;;9.50;99.90;;;;;;5010033;28;20508;-74
2023/12/21 08:08:58;;;;;;;11.93;3.00;;;9.60;99.90;;;;;;5013089;28;20045;-75
2023/12/21 08:11:23;;;;;;;6.53;2.17;;;9.50;99.90;;;;;;5017281;28;20492;-73
2023/12/21 08:13:50;;;;;;;7.28;2.70;;;9.60;99.90;;;;;;5019332;28;20038;-74
2023/12/21 08:16:17;;;;;;;8.98;2.30;;;9.60;99.90;;;;;;5017161;28;20042;-75
2023/12/21 08:18:44;;;;;;;8.73;2.63;;;9.60;99.90;;;;;;5012173;28;20049;-74
2023/12/21 08:21:10;;;;;;;9.38;2.35;;;9.60;99.90;;;;;;5009536;28;20052;-74
2023/12/21 08:23:35;;;;;;;9.25;2.40;;;9.60;99.90;;;;;;5016892;28;20045;-75
2023/12/21 08:26:03;;;;;;;8.82;2.65;;;10.00;99.90;;;;;;5012224;28;20038;-75
2023/12/21 08:28:30;;;;;;;5.85;2.28;;;9.60;99.90;;;;;;4996831;28;20042;-75
2023/12/21 08:30:56;;;;;;;6.53;2.17;;;9.60;99.90;;;;;;5012137;28;20176;-74
2023/12/21 08:33:22;;;;;;;7.13;2.13;;;9.60;99.90;;;;;;5011058;28;20527;-75
2023/12/21 08:35:47;;;;;;;7.88;2.28;;;9.60;99.90;;;;;;5012954;28;20034;-74
2023/12/21 08:38:13;;;;;;;10.85;2.50;;;9.60;99.90;;;;;;5015335;28;20400;-74
2023/12/21 08:40:39;;;;;;;14.23;2.80;;;9.60;99.90;;;;;;5012370;28;20064;-75
2023/12/21 08:43:04;;;;;;;8.65;2.15;;;9.60;99.90;;;;;;5012337;28;20148;-74
2023/12/21 08:45:31;;;;;;;9.20;2.80;;;9.70;99.90;;;;;;5017641;28;20121;-74
2023/12/21 08:47:57;;;;;;;9.45;2.50;;;9.70;99.90;;;;;;5011255;28;20052;-74
2023/12/21 08:50:23;;;;;;;9.75;2.63;;;9.70;99.90;;;;;;5012939;28;20109;-75
2023/12/21 08:52:49;;;;;;;9.40;2.58;;;9.70;99.90;;;;;;5013216;28;20045;-75
2023/12/21 08:55:14;;;;;;;9.23;2.45;;;9.70;99.90;;;;;;5014823;28;20124;-74
2023/12/21 08:57:40;;;;;;;11.68;2.60;;;9.70;99.90;;;;;;5011532;28;20117;-73
2023/12/21 09:00:13;;;;;;;12.80;2.58;;;9.70;99.90;;;;;;5011926;28;20431;-73
2023/12/21 09:02:39;;;;;;;13.27;2.85;;;9.70;99.90;;;;;;5009768;28;20037;-75
2023/12/21 09:05:05;;;;;;;12.25;2.25;;;9.70;99.90;;;;;;5010372;28;20400;-75
2023/12/21 09:07:31;;;;;;;10.30;3.10;;;9.80;99.90;;;;;;5011209;28;20044;-75
2023/12/21 09:09:57;;;;;;;11.85;2.83;;;9.80;99.90;;;;;;5011221;28;20120;-74
2023/12/21 09:12:23;;;;;;;13.52;2.30;;;9.80;99.90;;;;;;5009206;28;20707;-74
2023/12/21 09:14:48;;;;;;;13.88;2.65;;;9.80;99.90;;;;;;5007660;28;20029;-75
2023/12/21 09:17:14;;;;;;;13.25;2.08;;;9.80;99.90;;;;;;5007255;28;20668;-74
2023/12/21 09:19:43;;;;;;;11.10;2.47;;;9.80;99.90;;;;;;5007610;28;20038;-74
2023/12/21 09:22:08;;;;;;;9.32;2.70;;;9.80;99.90;;;;;;5006486;28;20077;-74
2023/12/21 09:24:34;;;;;;;11.98;2.42;;;9.80;99.90;;;;;;5007502;28;20485;-74
2023/12/21 09:27:00;;;;;;;9.52;2.55;;;9.80;99.90;;;;;;5008188;28;20049;-74
2023/12/21 09:29:25;;;;;;;12.77;2.60;;;9.80;99.90;;;;;;5013691;28;20038;-74
2023/12/21 09:31:51;;;;;;;9.15;2.00;;;9.80;99.90;;;;;;5010989;28;20034;-76
2023/12/21 09:34:18;;;;;;;8.23;1.63;;;9.90;99.90;;;;;;5009702;28;20065;-73
2023/12/21 09:36:43;;;;;;;7.25;2.10;;;9.90;99.90;;;;;;5009382;28;20054;-74
2023/12/21 09:39:12;;;;;;;13.38;2.40;;;9.90;99.90;;;;;;5007988;28;20048;-75
2023/12/21 09:41:38;;;;;;;9.27;2.10;;;9.90;99.90;;;;;;5010974;28;20390;-74
2023/12/21 09:44:05;;;;;;;9.40;1.95;;;10.50;99.90;;;;;;5009254;28;20049;-75
2023/12/21 09:46:39;;;;;;;8.75;1.90;;;9.90;99.90;;;;;;5011061;28;20041;-75
2023/12/21 09:49:19;;;;;;;9.85;1.80;;;9.90;99.90;;;;;;4994387;28;20075;-76
2023/12/21 09:51:46;;;;;;;11.55;2.50;;;10.00;99.90;;;;;;4993643;28;20054;-75
2023/12/21 09:54:13;;;;;;;15.45;2.95;;;10.00;99.90;;;;;;5009464;28;20052;-75
2023/12/21 09:56:40;;;;;;;16.50;2.20;;;10.10;99.90;;;;;;5011226;28;20160;-74
2023/12/21 09:59:07;;;;;;;15.95;2.90;;;10.10;99.90;;;;;;5009976;28;20038;-74
2023/12/21 10:01:33;;;;;;;14.25;2.85;;;10.00;99.90;;;;;;5010434;28;20046;-75
2023/12/21 10:03:59;;;;;;;15.77;2.85;;;10.00;99.90;;;;;;5006858;28;20121;-76
2023/12/21 10:06:26;;;;;;;15.88;2.92;;;10.00;99.90;;;;;;5012250;28;20041;-75
2023/12/21 10:08:52;;;;;;;12.93;2.90;;;10.10;99.90;;;;;;5008962;28;20508;-75
2023/12/21 10:11:19;;;;;;;14.38;2.63;;;10.10;99.90;;;;;;5007938;28;20396;-75
2023/12/21 10:13:48;;;;;;;16.25;2.35;;;10.10;99.90;;;;;;5009545;28;20390;-75
2023/12/21 10:16:14;;;;;;;16.50;3.00;;;10.20;99.90;;;;;;5009464;28;20177;-75
2023/12/21 10:18:41;;;;;;;13.60;2.65;;;10.20;99.90;;;;;;5010633;28;20128;-75
2023/12/21 10:21:08;;;;;;;10.30;2.55;;;10.20;99.90;;;;;;5010527;28;20456;-75
2023/12/21 10:23:36;;;;;;;13.27;2.67;;;10.20;99.90;;;;;;5010020;28;20046;-75
2023/12/21 10:26:03;;;;;;;13.07;2.53;;;10.30;99.90;;;;;;5010802;28;20033;-75
2023/12/21 10:28:29;;;;;;;17.25;2.90;;;10.30;99.90;;;;;;5010268;28;20038;-75
2023/12/21 10:30:56;;;;;;;13.35;2.30;;;10.30;99.90;;;;;;5009165;28;20046;-75
2023/12/21 10:33:22;;;;;;;11.45;1.88;;;10.30;99.90;;;;;;5008760;28;20049;-75
2023/12/21 10:35:50;;;;;;;11.90;2.00;;;10.40;99.90;;;;;;5009044;28;20614;-75
2023/12/21 10:38:16;;;;;;;10.18;1.98;;;10.40;99.90;;;;;;5009622;28;20392;-75
2023/12/21 10:40:45;;;;;;;14.15;2.60;;;10.50;99.90;;;;;;5014104;28;20042;-75
2023/12/21 10:43:13;;;;;;;11.73;1.98;;;10.50;99.90;;;;;;5010030;28;20041;-75
2023/12/21 10:45:45;;;;;;;15.25;2.70;;;10.60;99.90;;;;;;5008734;28;20128;-75
2023/12/21 10:48:19;;;;;;;12.07;2.72;;;10.70;99.90;;;;;;5014669;28;20045;-75
2023/12/21 10:50:47;;;;;;;12.80;2.47;;;10.70;99.90;;;;;;5011573;28;20053;-76
2023/12/21 10:53:13;;;;;;;12.25;2.50;;;10.70;99.90;;;;;;5008967;28;20048;-75
2023/12/21 10:55:41;;;;;;;11.68;2.70;;;10.60;99.90;;;;;;5009035;28;20134;-75
2023/12/21 10:58:07;;;;;;;12.55;2.70;;;10.70;99.90;;;;;;5008687;28;20033;-75
2023/12/21 11:00:33;;;;;;;9.27;1.80;;;10.60;99.90;;;;;;5010161;28;20493;-76
2023/12/21 11:02:59;;;;;;;10.95;2.20;;;10.60;99.90;;;;;;5008211;28;20034;-75
2023/12/21 11:05:27;;;;;;;15.73;4.25;;;10.70;99.90;;;;;;5010046;28;20117;-75
2023/12/21 11:07:54;;;;;;;16.45;4.63;;;10.70;99.90;;;;;;5010278;28;20061;-75
2023/12/21 11:10:22;;;;;;;33.10;11.75;;;10.60;99.90;;;;;;5005174;28;20034;-76
2023/12/21 11:12:48;;;;;;;28.88;12.95;;;10.60;99.90;;;;;;5009089;28;20045;-74
2023/12/21 11:15:16;;;;;;;23.92;8.95;;;10.50;99.90;;;;;;5010019;28;20034;-75
2023/12/21 11:17:45;;;;;;;28.17;12.45;;;10.50;99.90;;;;;;5012499;28;20038;-75
2023/12/21 11:20:16;;;;;;;61.63;27.35;;;10.40;99.90;;;;;;5011939;28;20037;-75
2023/12/21 11:22:43;;;;;;;35.63;14.20;;;10.40;99.90;;;;;;5013452;28;20040;-75
2023/12/21 11:25:12;;;;;;;19.38;4.32;;;10.40;99.90;;;;;;5010523;28;20443;-75
2023/12/21 11:27:41;;;;;;;15.18;2.92;;;10.40;99.90;;;;;;5012872;28;20046;-75
2023/12/21 11:30:18;;;;;;;16.15;2.63;;;10.50;99.90;;;;;;5006154;28;20459;-75
2023/12/21 11:32:46;;;;;;;17.15;2.80;;;10.50;99.90;;;;;;5012105;28;20497;-74
2023/12/21 11:35:19;;;;;;;19.67;3.20;;;10.50;99.90;;;;;;5012199;28;20396;-75
2023/12/21 11:37:48;;;;;;;13.95;3.50;;;10.50;99.90;;;;;;5011270;28;20100;-77
2023/12/21 11:40:17;;;;;;;53.55;21.30;;;10.50;99.90;;;;;;5010141;28;20034;-75
2023/12/21 11:42:46;;;;;;;19.98;4.78;;;10.50;99.90;;;;;;5008190;28;20135;-75
2023/12/21 11:45:19;;;;;;;13.50;3.65;;;10.50;99.90;;;;;;5003587;28;20044;-76
2023/12/21 11:47:46;;;;;;;30.50;5.10;;;10.50;99.90;;;;;;5009380;28;20045;-75
2023/12/21 11:50:11;;;;;;;20.35;3.30;;;10.50;99.90;;;;;;5005551;28;20046;-74
2023/12/21 11:52:37;;;;;;;24.40;4.82;;;10.50;99.90;;;;;;4996651;28;20112;-76
2023/12/21 11:55:04;;;;;;;20.88;4.03;;;10.50;99.90;;;;;;5007666;28;20152;-76
2023/12/21 11:57:31;;;;;;;20.60;4.07;;;10.50;99.90;;;;;;5008115;28;20045;-75
2023/12/21 12:00:31;;;;;;;20.33;4.80;;;10.60;99.90;;;;;;5006729;28;20148;-76
2023/12/21 12:02:58;;;;;;;14.73;3.60;;;10.60;99.90;;;;;;4977051;28;20793;-76
2023/12/21 12:05:23;;;;;;;22.13;10.23;;;10.60;99.90;;;;;;5010914;28;20131;-76
2023/12/21 12:07:49;;;;;;;19.83;7.07;;;10.70;99.90;;;;;;5009670;28;20131;-75
2023/12/21 12:10:18;;;;;;;22.50;4.07;;;10.70;99.90;;;;;;5007891;28;20050;-75
2023/12/21 12:12:44;;;;;;;19.85;3.65;;;10.70;99.90;;;;;;5013809;28;20053;-75
2023/12/21 12:15:10;;;;;;;18.95;3.67;;;10.60;99.90;;;;;;5010085;28;20037;-75
2023/12/21 12:17:42;;;;;;;17.10;4.03;;;10.60;99.90;;;;;;5014550;28;20480;-74
2023/12/21 12:20:11;;;;;;;17.05;4.30;;;10.50;99.90;;;;;;5009756;28;20484;-74
2023/12/21 12:22:37;;;;;;;18.00;3.75;;;10.50;99.90;;;;;;5010267;28;20050;-74
2023/12/21 12:25:06;;;;;;;19.45;3.00;;;10.50;99.90;;;;;;5009743;28;20511;-75
2023/12/21 12:27:32;;;;;;;24.45;5.35;;;10.50;99.90;;;;;;5010005;28;20484;-75
2023/12/21 12:29:58;;;;;;;19.10;3.50;;;10.50;99.90;;;;;;5010660;28;20427;-75
2023/12/21 12:32:25;;;;;;;21.17;4.00;;;10.50;99.90;;;;;;5009792;28;20045;-76
2023/12/21 12:34:51;;;;;;;16.08;3.60;;;10.50;99.90;;;;;;5007332;28;20048;-76
2023/12/21 12:37:20;;;;;;;20.63;4.43;;;10.50;99.90;;;;;;5011934;28;20484;-75
2023/12/21 12:39:49;;;;;;;21.45;4.30;;;10.50;99.90;;;;;;5009924;28;20408;-76
2023/12/21 12:42:17;;;;;;;21.30;3.35;;;10.50;99.90;;;;;;5010352;28;20050;-74